Time;durP1;ratioP1;P1;durP2;ratioP2;P2;SDS_P1;SDS_P2;PMS_P1;PMS_P2;Temp;Humidity;BMP_temperature;BMP_pressure;BME280_temperature;BME280_humidity;BME280_pressure;Samples;Min_cycle;Max_cycle;Signal;HPM_P1;HPM_P2
2022/12/30 00:01:50;;;;;;;;;;;9.50;99.90;;;;;;5095831;28;20366;-81
2022/12/30 00:04:15;;;;;;;;;;;9.50;99.90;;;;;;5092664;28;19977;-81
2022/12/30 00:06:41;;;;;;;;;;;9.60;99.90;;;;;;5093086;28;19908;-83
2022/12/30 00:09:07;;;;;;;;;;;9.60;99.90;;;;;;5074404;28;20299;-83
2022/12/30 00:11:34;;;;;;;;;;;9.70;99.90;;;;;;5093555;28;19916;-84
2022/12/30 00:33:30;;;;;;;;;;;9.70;99.90;;;;;;5092832;28;20396;-83
2022/12/30 00:35:56;;;;;;;;;;;9.70;99.90;;;;;;5094410;28;19914;-85
2022/12/30 00:38:22;;;;;;;;;;;9.60;99.90;;;;;;5095840;28;19908;-84
2022/12/30 00:43:31;;;;;;;;;;;9.60;99.90;;;;;;5101294;28;19961;-84
2022/12/30 00:45:57;;;;;;;;;;;9.60;99.90;;;;;;5097586;28;20420;-84
2022/12/30 00:56:36;;;;;;;;;;;9.70;99.90;;;;;;5116671;28;19907;-85
2022/12/30 00:59:02;;;;;;;;;;;9.70;99.90;;;;;;5115601;28;19925;-87
2022/12/30 01:01:28;;;;;;;;;;;9.70;99.90;;;;;;5115805;28;19900;-84
2022/12/30 01:03:53;;;;;;;;;;;9.70;99.90;;;;;;5116072;28;19900;-86
2022/12/30 01:06:19;;;;;;;;;;;9.70;99.90;;;;;;5109705;28;19923;-87
2022/12/30 01:08:45;;;;;;;;;;;9.80;99.90;;;;;;5101329;28;19979;-86
2022/12/30 01:11:10;;;;;;;;;;;9.90;99.90;;;;;;5100178;28;19912;-86
2022/12/30 01:13:36;;;;;;;;;;;9.90;99.90;;;;;;5097458;28;19951;-86
2022/12/30 01:16:06;;;;;;;;;;;9.90;99.90;;;;;;5098013;28;19931;-87
2022/12/30 01:18:32;;;;;;;;;;;10.00;99.90;;;;;;5096995;28;19912;-87
2022/12/30 01:21:00;;;;;;;;;;;9.90;99.90;;;;;;5096772;28;19962;-87
2022/12/30 01:23:26;;;;;;;;;;;9.90;99.90;;;;;;5096212;28;19908;-87
2022/12/30 01:25:51;;;;;;;;;;;9.90;99.90;;;;;;5095767;28;20011;-86
2022/12/30 01:28:17;;;;;;;;;;;9.90;99.90;;;;;;5095241;28;19991;-87
2022/12/30 01:30:42;;;;;;;;;;;9.90;99.90;;;;;;5096458;28;20049;-88
2022/12/30 01:33:08;;;;;;;;;;;9.90;99.90;;;;;;5095655;28;19912;-87
2022/12/30 01:35:33;;;;;;;;;;;9.80;99.90;;;;;;5095974;28;19908;-86
2022/12/30 01:37:59;;;;;;;;;;;9.90;99.90;;;;;;5095361;28;19953;-87
2022/12/30 01:40:25;;;;;;;;;;;9.90;99.90;;;;;;5094642;28;19915;-86
2022/12/30 01:42:50;;;;;;;;;;;9.90;99.90;;;;;;5094505;28;19908;-86
2022/12/30 01:45:17;;;;;;;;;;;10.00;99.90;;;;;;5094089;28;20261;-87
2022/12/30 01:47:56;;;;;;;;;;;10.00;99.90;;;;;;5094025;28;19958;-87
2022/12/30 01:50:25;;;;;;;;;;;10.00;99.90;;;;;;5093881;28;19912;-86
2022/12/30 01:52:54;;;;;;;;;;;10.00;99.90;;;;;;5075924;28;20338;-86
2022/12/30 01:55:24;;;;;;;;;;;10.10;99.90;;;;;;5093712;28;19904;-86
2022/12/30 01:57:50;;;;;;;;;;;10.10;99.90;;;;;;5093856;28;20257;-86
2022/12/30 02:00:16;;;;;;;;;;;10.00;99.90;;;;;;5093304;28;19989;-84
2022/12/30 02:02:43;;;;;;;;;;;10.00;99.90;;;;;;5075146;28;19909;-84
2022/12/30 02:05:10;;;;;;;;;;;10.10;99.90;;;;;;5092176;28;20365;-84
2022/12/30 02:07:39;;;;;;;;;;;10.10;99.90;;;;;;5093047;28;19915;-85
2022/12/30 02:10:05;;;;;;;;;;;10.20;99.90;;;;;;5092674;28;20377;-84
2022/12/30 02:12:31;;;;;;;;;;;10.30;99.90;;;;;;5075615;28;19912;-83
2022/12/30 02:14:57;;;;;;;;;;;10.40;99.90;;;;;;5092312;28;19996;-84
2022/12/30 02:17:25;;;;;;;;;;;10.40;99.90;;;;;;5091646;28;19916;-84
2022/12/30 02:19:50;;;;;;;;;;;10.50;99.90;;;;;;5073936;28;19908;-85
2022/12/30 02:22:23;;;;;;;;;;;10.40;99.90;;;;;;5091064;28;19927;-84
2022/12/30 02:24:52;;;;;;;;;;;10.50;99.90;;;;;;5084808;28;19912;-83
2022/12/30 02:27:33;;;;;;;;;;;10.50;99.90;;;;;;5113745;28;20051;-83
2022/12/30 02:30:04;;;;;;;;;;;10.40;99.90;;;;;;5093444;28;19964;-83
2022/12/30 02:32:30;;;;;;;;;;;10.40;99.90;;;;;;5111740;28;19911;-83
2022/12/30 02:35:07;;;;;;;;;;;10.40;99.90;;;;;;5111587;28;19915;-82
2022/12/30 02:37:37;;;;;;;;;;;10.40;99.90;;;;;;5111237;28;19924;-82
2022/12/30 02:40:02;;;;;;;;;;;10.40;99.90;;;;;;5111043;28;19919;-85
2022/12/30 02:45:30;;;;;;;;;;;10.50;99.90;;;;;;5111241;28;19964;-81
2022/12/30 02:48:05;;;;;;;;;;;10.50;99.90;;;;;;5111710;28;19907;-81
2022/12/30 02:53:18;;;;;;;;;;;10.50;99.90;;;;;;5114219;28;20332;-81
2022/12/30 02:55:44;;;;;;;;;;;10.50;99.90;;;;;;5115498;28;20344;-81
2022/12/30 02:58:10;;;;;;;;;;;10.60;99.90;;;;;;5115348;28;19927;-82
2022/12/30 03:03:57;;;;;;;;;;;10.60;99.90;;;;;;5114708;28;20028;-81
2022/12/30 03:06:28;;;;;;;;;;;10.60;99.90;;;;;;5114465;28;19953;-81
2022/12/30 03:08:54;;;;;;;;;;;10.70;99.90;;;;;;5114985;28;20011;-82
2022/12/30 03:11:20;;;;;;;;;;;10.70;99.90;;;;;;5113986;28;20056;-81
2022/12/30 03:14:04;;;;;;;;;;;10.70;99.90;;;;;;5114696;28;19957;-82
2022/12/30 03:16:41;;;;;;;;;;;10.70;99.90;;;;;;5114116;28;19908;-81
2022/12/30 03:19:09;;;;;;;;;;;10.70;99.90;;;;;;5114636;28;19908;-85
2022/12/30 03:21:37;;;;;;;;;;;10.70;99.90;;;;;;5114523;28;20324;-81
2022/12/30 03:27:05;;;;;;;;;;;10.80;99.90;;;;;;5123263;28;20295;-81
2022/12/30 03:29:36;;;;;;;;;;;10.80;99.90;;;;;;5116166;28;19908;-82
2022/12/30 03:32:02;;;;;;;;;;;10.80;99.90;;;;;;5114258;28;19915;-81
2022/12/30 03:34:28;;;;;;;;;;;10.80;99.90;;;;;;5113772;28;20053;-82
2022/12/30 03:36:58;;;;;;;;;;;10.80;99.90;;;;;;5100906;28;19912;-81
2022/12/30 03:39:27;;;;;;;;;;;10.80;99.90;;;;;;5093732;28;19915;-82
2022/12/30 03:41:53;;;;;;;;;;;10.80;99.90;;;;;;5093493;28;19908;-82
2022/12/30 03:44:19;;;;;;;;;;;10.80;99.90;;;;;;5092729;28;20292;-82
2022/12/30 03:46:45;;;;;;;;;;;10.80;99.90;;;;;;5093701;28;19908;-82
2022/12/30 03:49:11;;;;;;;;;;;10.90;99.90;;;;;;5093171;28;20375;-82
2022/12/30 03:51:36;;;;;;;;;;;10.90;99.90;;;;;;5093197;28;19916;-82
2022/12/30 03:54:02;;;;;;;;;;;10.90;99.90;;;;;;5093207;28;19988;-81
2022/12/30 03:56:27;;;;;;;;;;;10.90;99.90;;;;;;5092835;28;19994;-81
2022/12/30 03:58:53;;;;;;;;;;;11.00;99.90;;;;;;5093547;28;19915;-82
2022/12/30 04:01:19;;;;;;;;;;;11.00;99.90;;;;;;5092693;28;19970;-81
2022/12/30 04:03:45;;;;;;;;;;;11.00;99.90;;;;;;5092283;28;19909;-81
2022/12/30 04:06:11;;;;;;;;;;;11.10;99.90;;;;;;5092710;28;19912;-82
2022/12/30 04:08:36;;;;;;;;;;;11.10;99.90;;;;;;5074376;28;20016;-81
2022/12/30 04:11:02;;;;;;;;;;;11.10;99.90;;;;;;5093243;28;19913;-82
2022/12/30 04:13:27;;;;;;;;;;;11.10;99.90;;;;;;5108996;28;20428;-82
2022/12/30 04:15:53;;;;;;;;;;;11.10;99.90;;;;;;5118715;28;19967;-83
2022/12/30 04:18:18;;;;;;;;;;;11.10;99.90;;;;;;5110413;28;19907;-83
2022/12/30 04:20:45;;;;;;;;;;;11.10;99.90;;;;;;5115609;28;19908;-83
2022/12/30 04:23:10;;;;;;;;;;;11.10;99.90;;;;;;5113493;28;19908;-85
2022/12/30 04:25:36;;;;;;;;;;;11.00;99.90;;;;;;5113732;28;19907;-82
2022/12/30 04:28:02;;;;;;;;;;;11.00;99.90;;;;;;5112976;28;19908;-83
2022/12/30 04:30:27;;;;;;;;;;;11.00;99.90;;;;;;5112537;28;19923;-82
2022/12/30 04:32:53;;;;;;;;;;;10.90;99.90;;;;;;5113157;28;19941;-83
2022/12/30 04:35:19;;;;;;;;;;;10.90;99.90;;;;;;5113332;28;19931;-83
2022/12/30 04:37:46;;;;;;;;;;;10.90;99.90;;;;;;5112598;28;19911;-84
2022/12/30 04:40:12;;;;;;;;;;;11.00;99.90;;;;;;5113279;28;19960;-85
2022/12/30 04:42:37;;;;;;;;;;;10.90;99.90;;;;;;5113085;28;20006;-86
2022/12/30 04:45:03;;;;;;;;;;;10.90;99.90;;;;;;5112787;28;19960;-86
2022/12/30 04:47:29;;;;;;;;;;;10.90;99.90;;;;;;5111548;28;19998;-87
2022/12/30 04:49:55;;;;;;;;;;;10.80;99.90;;;;;;5092822;28;19913;-86
2022/12/30 04:52:20;;;;;;;;;;;10.80;99.90;;;;;;5092919;28;20007;-86
2022/12/30 04:54:46;;;;;;;;;;;10.80;99.90;;;;;;5093043;28;19954;-87
2022/12/30 04:57:12;;;;;;;;;;;10.70;99.90;;;;;;5092971;28;20380;-88
2022/12/30 04:59:37;;;;;;;;;;;10.70;99.90;;;;;;5093271;28;20016;-89
2022/12/30 05:02:03;;;;;;;;;;;10.70;99.90;;;;;;5093113;28;19908;-90
2022/12/30 05:04:28;;;;;;;;;;;10.60;99.90;;;;;;5091573;28;20018;-90
2022/12/30 05:06:54;;;;;;;;;;;10.60;99.90;;;;;;5098288;28;19919;-89
2022/12/30 05:09:19;;;;;;;;;;;10.60;99.90;;;;;;5103723;28;19931;-86
2022/12/30 05:11:45;;;;;;;;;;;10.60;99.90;;;;;;5091945;28;19919;-83
2022/12/30 05:14:11;;;;;;;;;;;10.60;99.90;;;;;;5092470;28;20353;-84
2022/12/30 05:16:36;;;;;;;;;;;10.50;99.90;;;;;;5092104;28;19908;-87
2022/12/30 05:19:02;;;;;;;;;;;10.50;99.90;;;;;;5092186;28;19934;-85
2022/12/30 05:21:27;;;;;;;;;;;10.40;99.90;;;;;;5114201;28;19904;-86
2022/12/30 05:26:37;;;;;;;;;;;10.30;99.90;;;;;;5114480;28;19937;-83
2022/12/30 05:29:03;;;;;;;;;;;10.30;99.90;;;;;;5095849;28;19920;-85
2022/12/30 05:31:28;;;;;;;;;;;10.20;99.90;;;;;;5114614;28;19979;-86
2022/12/30 05:33:54;;;;;;;;;;;10.20;99.90;;;;;;5115443;28;19904;-86
2022/12/30 05:36:20;;;;;;;;;;;10.20;99.90;;;;;;5114680;28;19920;-86
2022/12/30 05:38:46;;;;;;;;;;;10.20;99.90;;;;;;5097441;28;19933;-82
2022/12/30 05:41:12;;;;;;;;;;;10.20;99.90;;;;;;5114635;28;19912;-81
2022/12/30 05:43:37;;;;;;;;;;;10.10;99.90;;;;;;5096874;28;19916;-85
2022/12/30 05:46:03;;;;;;;;;;;10.20;99.90;;;;;;5097232;28;19900;-86
2022/12/30 05:48:29;;;;;;;;;;;10.20;99.90;;;;;;5116411;28;20343;-87
2022/12/30 05:50:54;;;;;;;;;;;10.10;99.90;;;;;;5112922;28;19965;-87
2022/12/30 05:53:20;;;;;;;;;;;10.10;99.90;;;;;;5113527;28;19943;-87
2022/12/30 05:55:46;;;;;;;;;;;10.10;99.90;;;;;;5113345;28;20357;-86
2022/12/30 05:58:12;;;;;;;;;;;10.20;99.90;;;;;;5112655;28;19975;-86
2022/12/30 06:00:38;;;;;;;;;;;10.20;99.90;;;;;;5101627;28;19920;-85
2022/12/30 06:03:04;;;;;;;;;;;10.20;99.90;;;;;;5092395;28;19981;-86
2022/12/30 06:05:29;;;;;;;;;;;10.20;99.90;;;;;;5091402;28;20300;-87
2022/12/30 06:07:55;;;;;;;;;;;10.20;99.90;;;;;;5092116;28;19931;-85
2022/12/30 06:10:21;;;;;;;;;;;10.20;99.90;;;;;;5091523;28;19968;-86
2022/12/30 06:12:46;;;;;;;;;;;10.20;99.90;;;;;;5092311;28;19923;-85
2022/12/30 06:15:12;;;;;;;;;;;10.20;99.90;;;;;;5091666;28;19927;-86
2022/12/30 06:17:37;;;;;;;;;;;10.30;99.90;;;;;;5090545;28;19909;-86
2022/12/30 06:20:03;;;;;;;;;;;10.30;99.90;;;;;;5091420;28;20470;-86
2022/12/30 06:22:29;;;;;;;;;;;10.30;99.90;;;;;;5090743;28;19916;-86
2022/12/30 06:24:54;;;;;;;;;;;10.30;99.90;;;;;;5091705;28;19912;-86
2022/12/30 06:27:20;;;;;;;;;;;10.30;99.90;;;;;;5093808;28;20025;-86
2022/12/30 06:29:47;;;;;;;;;;;10.30;99.90;;;;;;5095224;28;19912;-85
2022/12/30 06:32:12;;;;;;;;;;;10.30;99.90;;;;;;5095143;28;19920;-85
2022/12/30 06:34:38;;;;;;;;;;;10.30;99.90;;;;;;5093968;28;19995;-85
2022/12/30 06:37:03;;;;;;;;;;;10.30;99.90;;;;;;5108489;28;19934;-85
2022/12/30 06:39:29;;;;;;;;;;;10.30;99.90;;;;;;5114806;28;20276;-85
2022/12/30 06:41:54;;;;;;;;;;;10.30;99.90;;;;;;5102310;28;19908;-85
2022/12/30 06:44:20;;;;;;;;;;;10.40;99.90;;;;;;5094086;28;19916;-85
2022/12/30 06:46:45;;;;;;;;;;;10.40;99.90;;;;;;5094494;28;19948;-84
2022/12/30 06:49:11;;;;;;;;;;;10.40;99.90;;;;;;5094632;28;20292;-84
2022/12/30 06:51:36;;;;;;;;;;;10.40;99.90;;;;;;5107689;28;20020;-84
2022/12/30 06:54:02;;;;;;;;;;;10.40;99.90;;;;;;5114868;28;19952;-84
2022/12/30 06:56:28;;;;;;;;;;;10.40;99.90;;;;;;5114848;28;20399;-84
2022/12/30 06:58:53;;;;;;;;;;;10.30;99.90;;;;;;5112723;28;19915;-83
2022/12/30 07:01:19;;;;;;;;;;;10.30;99.90;;;;;;5094074;28;19916;-83
2022/12/30 07:03:44;;;;;;;;;;;10.40;99.90;;;;;;5075647;28;19933;-82
2022/12/30 07:06:10;;;;;;;;;;;10.40;99.90;;;;;;5094396;28;20011;-82
2022/12/30 07:08:35;;;;;;;;;;;10.50;99.90;;;;;;5093654;28;20313;-82
2022/12/30 07:11:01;;;;;;;;;;;10.50;99.90;;;;;;5094239;28;19916;-82
2022/12/30 07:13:28;;;;;;;;;;;10.50;99.90;;;;;;5093068;28;19920;-84
2022/12/30 07:15:53;;;;;;;;;;;10.50;99.90;;;;;;5108144;28;20191;-83
2022/12/30 07:18:19;;;;;;;;;;;10.50;99.90;;;;;;5114414;28;19922;-83
2022/12/30 07:20:45;;;;;;;;;;;10.50;99.90;;;;;;5113412;28;19908;-83
2022/12/30 07:23:10;;;;;;;;;;;10.60;99.90;;;;;;5114643;28;20395;-84
2022/12/30 07:25:36;;;;;;;;;;;10.60;99.90;;;;;;5114022;28;19908;-83
2022/12/30 07:28:03;;;;;;;;;;;10.60;99.90;;;;;;5114139;28;20026;-83
2022/12/30 07:30:29;;;;;;;;;;;10.60;99.90;;;;;;5113973;28;19911;-83
2022/12/30 07:32:54;;;;;;;;;;;10.60;99.90;;;;;;5113971;28;20046;-85
2022/12/30 07:35:20;;;;;;;;;;;10.60;99.90;;;;;;5095739;28;19919;-85
2022/12/30 07:37:46;;;;;;;;;;;10.60;99.90;;;;;;5113134;28;19918;-85
2022/12/30 07:40:11;;;;;;;;;;;10.60;99.90;;;;;;5114278;28;19915;-85
2022/12/30 07:42:37;;;;;;;;;;;10.60;99.90;;;;;;5114021;28;19980;-86
2022/12/30 07:45:02;;;;;;;;;;;10.60;99.90;;;;;;5113818;28;20329;-85
2022/12/30 07:47:32;;;;;;;;;;;10.70;99.90;;;;;;5112474;28;19919;-86
2022/12/30 07:49:58;;;;;;;;;;;10.60;99.90;;;;;;5113928;28;19974;-86
2022/12/30 07:52:24;;;;;;;;;;;10.60;99.90;;;;;;5113222;28;19912;-86
2022/12/30 07:54:50;;;;;;;;;;;10.70;99.90;;;;;;5113640;28;19926;-86
2022/12/30 07:57:15;;;;;;;;;;;10.70;99.90;;;;;;5113703;28;19943;-87
2022/12/30 07:59:41;;;;;;;;;;;10.70;99.90;;;;;;5113117;28;19908;-87
2022/12/30 08:02:08;;;;;;;;;;;10.70;99.90;;;;;;5114084;28;20370;-88
2022/12/30 08:04:33;;;;;;;;;;;10.80;99.90;;;;;;5113870;28;19908;-87
2022/12/30 08:06:59;;;;;;;;;;;10.80;99.90;;;;;;5114050;28;19933;-87
2022/12/30 08:09:24;;;;;;;;;;;10.80;99.90;;;;;;5118898;28;19924;-86
2022/12/30 08:11:50;;;;;;;;;;;10.80;99.90;;;;;;5117538;28;19919;-86
2022/12/30 08:14:15;;;;;;;;;;;10.80;99.90;;;;;;5117567;28;19915;-85
2022/12/30 08:16:41;;;;;;;;;;;10.80;99.90;;;;;;5115299;28;20226;-85
2022/12/30 08:19:06;;;;;;;;;;;10.80;99.90;;;;;;5113591;28;19915;-84
2022/12/30 08:21:32;;;;;;;;;;;10.80;99.90;;;;;;5112933;28;19950;-86
2022/12/30 08:23:58;;;;;;;;;;;10.80;99.90;;;;;;5112559;28;20002;-84
2022/12/30 08:26:24;;;;;;;;;;;10.80;99.90;;;;;;5113091;28;19930;-84
2022/12/30 08:28:50;;;;;;;;;;;10.80;99.90;;;;;;5112611;28;19911;-84
2022/12/30 08:31:17;;;;;;;;;;;10.90;99.90;;;;;;5112931;28;19965;-84
2022/12/30 08:33:43;;;;;;;;;;;10.90;99.90;;;;;;5112356;28;19911;-83
2022/12/30 08:36:11;;;;;;;;;;;10.90;99.90;;;;;;5112933;28;19908;-82
2022/12/30 08:38:38;;;;;;;;;;;10.80;99.90;;;;;;5112516;28;19908;-84
2022/12/30 08:41:07;;;;;;;;;;;10.80;99.90;;;;;;5113331;28;20296;-87
2022/12/30 08:43:33;;;;;;;;;;;10.80;99.90;;;;;;5090111;28;19969;-85
2022/12/30 08:45:59;;;;;;;;;;;10.80;99.90;;;;;;5095144;28;19916;-83
2022/12/30 08:48:24;;;;;;;;;;;10.70;99.90;;;;;;5113047;28;19977;-83
2022/12/30 08:50:50;;;;;;;;;;;10.50;99.90;;;;;;5093715;28;19922;-82
2022/12/30 08:53:15;;;;;;;;;;;10.20;99.90;;;;;;5113074;28;19911;-87
2022/12/30 08:55:41;;;;;;;;;;;10.10;99.90;;;;;;5107126;28;19990;-80
2022/12/30 08:58:06;;;;;;;;;;;10.00;99.90;;;;;;5103872;28;20504;-81
2022/12/30 09:00:32;;;;;;;;;;;9.90;99.90;;;;;;5102240;28;19912;-82
2022/12/30 09:02:57;;;;;;;;;;;9.90;99.90;;;;;;5092250;28;19912;-82
2022/12/30 09:05:23;;;;;;;;;;;9.80;99.90;;;;;;5092273;28;19908;-80
2022/12/30 09:07:49;;;;;;;;;;;9.70;99.90;;;;;;5095148;28;20509;-81
2022/12/30 09:10:14;;;;;;;;;;;9.60;99.90;;;;;;5112652;28;19934;-81
2022/12/30 09:12:40;;;;;;;;;;;9.60;99.90;;;;;;5112811;28;19947;-83
2022/12/30 09:15:06;;;;;;;;;;;9.60;99.90;;;;;;5104988;28;19963;-81
2022/12/30 09:17:32;;;;;;;;;;;9.50;99.90;;;;;;5103125;28;19916;-87
2022/12/30 09:19:57;;;;;;;;;;;9.50;99.90;;;;;;5098780;28;19912;-84
2022/12/30 09:22:24;;;;;;;;;;;9.50;99.90;;;;;;5108196;28;19908;-85
2022/12/30 09:24:49;;;;;;;;;;;9.40;99.90;;;;;;5102815;28;19908;-85
2022/12/30 09:27:15;;;;;;;;;;;9.40;99.90;;;;;;5100227;28;19908;-85
2022/12/30 09:29:40;;;;;;;;;;;9.40;99.90;;;;;;5102737;28;20006;-85
2022/12/30 09:32:06;;;;;;;;;;;9.40;99.90;;;;;;5112675;28;20002;-84
2022/12/30 09:34:31;;;;;;;;;;;9.40;99.90;;;;;;5111724;28;19911;-85
2022/12/30 09:36:57;;;;;;;;;;;9.40;99.90;;;;;;5080410;28;19919;-84
2022/12/30 09:39:30;;;;;;;;;;;9.50;99.90;;;;;;5091746;28;19979;-83
2022/12/30 09:44:56;;;;;;;;;;;9.40;99.90;;;;;;5090828;28;19915;-83
2022/12/30 09:47:30;;;;;;;;;;;9.50;99.90;;;;;;5092080;28;19907;-83
2022/12/30 09:50:00;;;;;;;;;;;9.50;99.90;;;;;;5091248;28;19912;-83
2022/12/30 09:52:31;;;;;;;;;;;9.50;99.90;;;;;;5091887;28;19959;-82
2022/12/30 09:55:11;;;;;;;;;;;9.50;99.90;;;;;;5091287;28;19974;-81
2022/12/30 09:57:37;;;;;;;;;;;9.50;99.90;;;;;;5091366;28;19920;-83
2022/12/30 10:00:07;;;;;;;;;;;9.50;99.90;;;;;;5091734;28;20030;-83
2022/12/30 10:02:42;;;;;;;;;;;9.50;99.90;;;;;;5094223;28;19915;-85
2022/12/30 10:05:11;;;;;;;;;;;9.50;99.90;;;;;;5095762;28;20007;-86
2022/12/30 10:07:50;;;;;;;;;;;9.50;99.90;;;;;;5077569;28;19908;-85
2022/12/30 10:10:35;;;;;;;;;;;9.50;99.90;;;;;;5068423;28;19920;-83
2022/12/30 10:13:24;;;;;;;;;;;9.40;99.90;;;;;;5107097;28;20381;-83
2022/12/30 10:15:51;;;;;;;;;;;9.30;99.90;;;;;;5105000;28;19963;-83
2022/12/30 10:18:20;;;;;;;;;;;9.30;99.90;;;;;;5097868;28;19916;-82
2022/12/30 10:20:57;;;;;;;;;;;9.20;99.90;;;;;;5097180;28;19969;-81
2022/12/30 10:23:30;;;;;;;;;;;9.20;99.90;;;;;;5106844;28;19920;-82
2022/12/30 10:25:55;;;;;;;;;;;9.10;99.90;;;;;;5097179;28;19908;-81
2022/12/30 10:28:27;;;;;;;;;;;9.10;99.90;;;;;;5095297;28;19919;-81
2022/12/30 10:30:53;;;;;;;;;;;9.20;99.90;;;;;;5077042;28;19920;-81
2022/12/30 10:33:19;;;;;;;;;;;9.20;99.90;;;;;;5096584;28;19916;-80
2022/12/30 10:35:47;;;;;;;;;;;9.20;99.90;;;;;;5095813;28;19908;-80
2022/12/30 10:38:14;;;;;;;;;;;9.20;99.90;;;;;;5097279;28;19973;-79
2022/12/30 10:40:54;;;;;;;;;;;9.20;99.90;;;;;;5095034;28;19978;-80
2022/12/30 10:43:31;;;;;;;;;;;9.20;99.90;;;;;;5094786;28;19961;-79
2022/12/30 10:46:08;;;;;;;;;;;9.20;99.90;;;;;;5094140;28;19909;-81
2022/12/30 10:48:52;;;;;;;;;;;9.10;99.90;;;;;;5096492;28;19908;-84
2022/12/30 10:51:18;;;;;;;;;;;9.10;99.90;;;;;;5106984;28;20258;-80
2022/12/30 10:53:46;;;;;;;;;;;9.00;99.90;;;;;;5094682;28;20006;-80
2022/12/30 10:56:16;;;;;;;;;;;9.00;99.90;;;;;;5100265;28;19912;-79
2022/12/30 10:58:43;;;;;;;;;;;9.00;99.90;;;;;;5077708;28;19909;-78
2022/12/30 11:01:17;;;;;;;;;;;9.00;99.90;;;;;;5099893;28;19915;-83
2022/12/30 11:03:45;;;;;;;;;;;9.00;99.90;;;;;;5099216;28;19908;-78
2022/12/30 11:06:19;;;;;;;;;;;9.00;99.90;;;;;;5103331;28;19965;-79
2022/12/30 11:08:44;;;;;;;;;;;9.10;99.90;;;;;;5104997;28;19924;-80
2022/12/30 11:11:10;;;;;;;;;;;9.10;99.90;;;;;;5106482;28;19917;-79
2022/12/30 11:16:31;;;;;;;;;;;9.10;99.90;;;;;;5100511;28;19970;-80
2022/12/30 11:18:58;;;;;;;;;;;9.10;99.90;;;;;;5101652;28;19991;-78
2022/12/30 11:21:26;;;;;;;;;;;9.10;99.90;;;;;;5103011;28;20051;-78
2022/12/30 11:23:55;;;;;;;;;;;9.10;99.90;;;;;;5099132;28;19912;-78
2022/12/30 11:26:22;;;;;;;;;;;9.10;99.90;;;;;;5100867;28;19908;-78
2022/12/30 11:28:59;;;;;;;;;;;9.10;99.90;;;;;;5080897;28;19978;-78
2022/12/30 11:31:51;;;;;;;;;;;9.10;99.90;;;;;;5098640;28;20012;-78
2022/12/30 11:34:19;;;;;;;;;;;9.10;99.90;;;;;;5095047;28;19951;-78
2022/12/30 11:36:45;;;;;;;;;;;9.10;99.90;;;;;;5098317;28;19923;-78
2022/12/30 11:39:27;;;;;;;;;;;9.10;99.90;;;;;;5098544;28;19908;-79
2022/12/30 11:41:54;;;;;;;;;;;9.10;99.90;;;;;;5098804;28;19950;-79
2022/12/30 11:44:38;;;;;;;;;;;9.10;99.90;;;;;;5099487;28;19908;-78
2022/12/30 11:47:05;;;;;;;;;;;9.10;99.90;;;;;;5098672;28;19908;-78
2022/12/30 11:49:46;;;;;;;;;;;9.10;99.90;;;;;;5101454;28;19965;-78
2022/12/30 11:52:15;;;;;;;;;;;9.20;99.90;;;;;;5078355;28;19920;-77
2022/12/30 11:55:07;;;;;;;;;;;9.10;99.90;;;;;;5096805;28;19908;-79
2022/12/30 11:57:36;;;;;;;;;;;9.10;99.90;;;;;;5093094;28;19909;-77
2022/12/30 12:00:02;;;;;;;;;;;9.20;99.90;;;;;;5101713;28;19919;-76
2022/12/30 12:02:27;;;;;;;;;;;9.20;99.90;;;;;;5115412;28;19916;-79
2022/12/30 12:04:53;;;;;;;;;;;9.20;99.90;;;;;;5105788;28;20293;-79
2022/12/30 12:07:25;;;;;;;;;;;9.10;99.90;;;;;;5103396;28;19923;-79
2022/12/30 12:09:59;;;;;;;;;;;9.10;99.90;;;;;;5106042;28;19954;-77
2022/12/30 12:12:27;;;;;;;;;;;9.10;99.90;;;;;;5104086;28;19919;-77
2022/12/30 12:15:15;;;;;;;;;;;9.10;99.90;;;;;;5107366;28;19907;-78
2022/12/30 12:17:46;;;;;;;;;;;9.10;99.90;;;;;;5115847;28;19999;-78
2022/12/30 12:20:11;;;;;;;;;;;9.10;99.90;;;;;;5116005;28;20002;-78
2022/12/30 12:22:56;;;;;;;;;;;9.10;99.90;;;;;;5115575;28;19962;-79
2022/12/30 12:25:22;;;;;;;;;;;9.10;99.90;;;;;;5115408;28;19908;-77
2022/12/30 12:27:49;;;;;;;;;;;9.10;99.90;;;;;;5097051;28;19931;-77
2022/12/30 12:30:15;;;;;;;;;;;9.10;99.90;;;;;;5115716;28;20037;-77
2022/12/30 12:32:59;;;;;;;;;;;9.10;99.90;;;;;;5096203;28;20035;-78
2022/12/30 12:35:33;;;;;;;;;;;9.20;99.90;;;;;;5114872;28;19979;-79
2022/12/30 12:38:18;;;;;;;;;;;9.10;99.90;;;;;;5091792;28;20280;-77
2022/12/30 12:40:49;;;;;;;;;;;9.20;99.90;;;;;;5102954;28;19915;-77
2022/12/30 12:43:18;;;;;;;;;;;9.20;99.90;;;;;;5102218;28;19912;-78
2022/12/30 12:45:51;;;;;;;;;;;9.20;99.90;;;;;;5098933;28;19980;-78
2022/12/30 12:48:32;;;;;;;;;;;9.20;99.90;;;;;;5100269;28;19944;-78
2022/12/30 12:51:06;;;;;;;;;;;9.20;99.90;;;;;;5100614;28;20081;-78
2022/12/30 12:53:44;;;;;;;;;;;9.20;99.90;;;;;;5093916;28;19981;-79
2022/12/30 12:56:15;;;;;;;;;;;9.20;99.90;;;;;;5093977;28;19988;-79
2022/12/30 12:58:50;;;;;;;;;;;9.20;99.90;;;;;;5093474;28;19908;-78
2022/12/30 13:01:22;;;;;;;;;;;9.20;99.90;;;;;;5093367;28;19928;-79
2022/12/30 13:03:48;;;;;;;;;;;9.20;99.90;;;;;;5093087;28;19912;-79
2022/12/30 13:06:33;;;;;;;;;;;9.30;99.90;;;;;;5093485;28;19916;-78
2022/12/30 13:08:59;;;;;;;;;;;9.30;99.90;;;;;;5093039;28;20388;-78
2022/12/30 13:11:33;;;;;;;;;;;9.30;99.90;;;;;;5093377;28;19912;-78
2022/12/30 13:14:13;;;;;;;;;;;9.30;99.90;;;;;;5091913;28;20464;-78
2022/12/30 13:16:41;;;;;;;;;;;9.30;99.90;;;;;;5093231;28;20383;-84
2022/12/30 13:19:11;;;;;;;;;;;9.30;99.90;;;;;;5093473;28;19907;-79
2022/12/30 13:21:37;;;;;;;;;;;9.40;99.90;;;;;;5093242;28;19908;-78
2022/12/30 13:24:04;;;;;;;;;;;9.40;99.90;;;;;;5092784;28;19915;-78
2022/12/30 13:26:32;;;;;;;;;;;9.40;99.90;;;;;;5093585;28;19908;-79
2022/12/30 13:28:59;;;;;;;;;;;9.50;99.90;;;;;;5093227;28;19958;-80
2022/12/30 13:31:43;;;;;;;;;;;9.50;99.90;;;;;;5074651;28;19936;-80
2022/12/30 13:34:09;;;;;;;;;;;9.40;99.90;;;;;;5092707;28;20106;-80
2022/12/30 13:36:34;;;;;;;;;;;9.40;99.90;;;;;;5092915;28;19951;-80
2022/12/30 13:39:13;;;;;;;;;;;9.40;99.90;;;;;;5092122;28;19935;-80
2022/12/30 13:41:55;;;;;;;;;;;9.40;99.90;;;;;;5092565;28;20285;-85
2022/12/30 13:44:22;;;;;;;;;;;9.30;99.90;;;;;;5074340;28;19908;-79
2022/12/30 13:46:49;;;;;;;;;;;9.30;99.90;;;;;;5091113;28;19916;-80
2022/12/30 13:49:34;;;;;;;;;;;9.30;99.90;;;;;;5092279;28;20273;-79
2022/12/30 13:52:05;;;;;;;;;;;9.20;99.90;;;;;;5091147;28;20527;-79
2022/12/30 13:54:31;;;;;;;;;;;9.20;99.90;;;;;;5074183;28;20280;-79
2022/12/30 13:56:59;;;;;;;;;;;9.10;99.90;;;;;;5092086;28;19908;-79
2022/12/30 13:59:45;;;;;;;;;;;9.10;99.90;;;;;;5092300;28;19995;-79
2022/12/30 14:02:10;;;;;;;;;;;9.10;99.90;;;;;;5071933;28;19908;-77
2022/12/30 14:04:44;;;;;;;;;;;9.00;99.90;;;;;;5091864;28;19908;-78
2022/12/30 14:07:29;;;;;;;;;;;9.00;99.90;;;;;;5092060;28;19908;-78
2022/12/30 14:10:13;;;;;;;;;;;9.00;99.90;;;;;;5091190;28;19920;-79
2022/12/30 14:12:39;;;;;;;;;;;9.00;99.90;;;;;;5091918;28;19969;-78
2022/12/30 14:15:25;;;;;;;;;;;9.00;99.90;;;;;;5091116;28;19961;-78
2022/12/30 14:17:51;;;;;;;;;;;9.00;99.90;;;;;;5085962;28;19908;-77
2022/12/30 14:20:27;;;;;;;;;;;9.00;99.90;;;;;;5101128;28;19961;-78
2022/12/30 14:22:53;;;;;;;;;;;9.00;99.90;;;;;;5091688;28;19915;-79
2022/12/30 14:25:28;;;;;;;;;;;8.90;99.90;;;;;;5092609;28;19912;-79
2022/12/30 14:28:01;;;;;;;;;;;8.90;99.90;;;;;;5090548;28;19908;-80
2022/12/30 14:30:35;;;;;;;;;;;8.90;99.90;;;;;;5091532;28;19912;-79
2022/12/30 14:33:06;;;;;;;;;;;8.90;99.90;;;;;;5090448;28;19929;-80
2022/12/30 14:35:32;;;;;;;;;;;8.90;99.90;;;;;;5091726;28;19969;-78
2022/12/30 14:38:21;;;;;;;;;;;8.90;99.90;;;;;;5091002;28;19912;-78
2022/12/30 14:41:06;;;;;;;;;;;9.00;99.90;;;;;;5090533;28;19915;-80
2022/12/30 14:43:34;;;;;;;;;;;9.00;99.90;;;;;;5090049;28;19908;-79
2022/12/30 14:46:18;;;;;;;;;;;9.00;99.90;;;;;;5090417;28;19912;-79
2022/12/30 14:49:03;;;;;;;;;;;8.90;99.90;;;;;;5093582;28;19928;-86
2022/12/30 14:51:29;;;;;;;;;;;8.90;99.90;;;;;;5094568;28;19913;-79
2022/12/30 14:53:55;;;;;;;;;;;8.80;99.90;;;;;;5094556;28;19912;-79
2022/12/30 14:56:21;;;;;;;;;;;8.80;99.90;;;;;;5094798;28;19931;-79
2022/12/30 14:58:47;;;;;;;;;;;8.70;99.90;;;;;;5095033;28;19915;-86
2022/12/30 15:01:12;;;;;;;;;;;8.70;99.90;;;;;;5095672;28;19961;-80
2022/12/30 15:03:38;;;;;;;;;;;8.70;99.90;;;;;;5095614;28;20010;-79
2022/12/30 15:06:04;;;;;;;;;;;8.70;99.90;;;;;;5094760;28;19919;-79
2022/12/30 15:08:32;;;;;;;;;;;8.70;99.90;;;;;;5095561;28;20356;-79
2022/12/30 15:11:18;;;;;;;;;;;8.60;99.90;;;;;;5095210;28;20002;-79
2022/12/30 15:13:45;;;;;;;;;;;8.60;99.90;;;;;;5094771;28;19931;-79
2022/12/30 15:16:18;;;;;;;;;;;8.60;99.90;;;;;;5076969;28;19930;-77
2022/12/30 15:18:48;;;;;;;;;;;8.60;99.90;;;;;;5095613;28;19915;-78
2022/12/30 15:21:17;;;;;;;;;;;8.60;99.90;;;;;;5096044;28;19908;-79
2022/12/30 15:23:42;;;;;;;;;;;8.60;99.90;;;;;;5095521;28;19995;-79